createdAt,value
2018-12-26T00:00:14.855Z,6.50
2018-12-26T00:02:43.190Z,6.50
2018-12-26T00:05:11.344Z,6.50
2018-12-26T00:07:39.520Z,6.40
2018-12-26T00:10:07.685Z,6.30
2018-12-26T00:12:35.767Z,6.30
2018-12-26T00:15:04.552Z,6.30
2018-12-26T00:17:32.980Z,6.30
2018-12-26T00:20:01.228Z,6.20
2018-12-26T00:22:29.601Z,6.20
2018-12-26T00:24:57.744Z,6.20
2018-12-26T00:27:25.974Z,6.20
2018-12-26T00:29:54.047Z,6.10
2018-12-26T00:32:22.098Z,6.20
2018-12-26T00:34:50.140Z,6.10
2018-12-26T00:37:18.360Z,6.10
2018-12-26T00:39:48.022Z,6.10
2018-12-26T00:42:16.609Z,6.10
2018-12-26T00:44:44.685Z,6.00
2018-12-26T00:47:12.742Z,6.00
2018-12-26T00:49:40.846Z,6.00
2018-12-26T00:52:08.945Z,6.00
2018-12-26T00:54:36.986Z,5.90
2018-12-26T00:57:05.064Z,5.90
2018-12-26T00:59:33.608Z,5.90
2018-12-26T01:02:01.762Z,5.80
2018-12-26T01:04:29.861Z,5.80
2018-12-26T01:06:57.999Z,5.90
2018-12-26T01:09:26.089Z,5.90
2018-12-26T01:11:54.135Z,5.80
2018-12-26T01:14:22.306Z,5.80
2018-12-26T01:16:50.340Z,5.80
2018-12-26T01:19:18.401Z,5.80
2018-12-26T01:21:47.573Z,5.80
2018-12-26T01:24:15.771Z,5.80
2018-12-26T01:26:43.866Z,5.90
2018-12-26T01:29:12.115Z,5.90
2018-12-26T01:31:40.255Z,5.90
2018-12-26T01:34:08.315Z,6.00
2018-12-26T01:36:36.466Z,5.90
2018-12-26T01:39:06.128Z,5.90
2018-12-26T01:41:34.268Z,6.00
2018-12-26T01:44:02.344Z,5.90
2018-12-26T01:46:30.664Z,5.90
2018-12-26T01:48:58.743Z,5.90
2018-12-26T01:51:26.882Z,5.90
2018-12-26T01:53:54.977Z,5.90
2018-12-26T01:56:27.969Z,5.90
2018-12-26T01:58:53.111Z,5.90
2018-12-26T02:01:21.326Z,6.00
2018-12-26T02:03:49.416Z,6.00
2018-12-26T02:06:17.682Z,6.00
2018-12-26T02:08:45.768Z,6.00
2018-12-26T02:11:13.921Z,6.00
2018-12-26T02:13:42.090Z,6.00
2018-12-26T02:16:10.218Z,6.00
2018-12-26T02:18:38.505Z,6.00
2018-12-26T02:21:06.562Z,6.00
2018-12-26T02:23:36.135Z,6.00
2018-12-26T02:26:04.524Z,6.00
2018-12-26T02:28:32.669Z,6.00
2018-12-26T02:31:00.996Z,6.00
2018-12-26T02:33:29.051Z,6.00
2018-12-26T02:35:57.097Z,6.00
2018-12-26T02:38:25.260Z,6.00
2018-12-26T02:40:53.303Z,6.00
2018-12-26T02:43:21.397Z,6.00
2018-12-26T02:45:49.426Z,6.00
2018-12-26T02:48:17.842Z,5.90
2018-12-26T02:50:45.995Z,6.00
2018-12-26T02:53:14.092Z,6.00
2018-12-26T02:55:42.169Z,6.10
2018-12-26T02:58:10.169Z,6.10
2018-12-26T03:00:38.340Z,6.10
2018-12-26T03:03:06.651Z,6.10
2018-12-26T03:05:35.011Z,6.10
2018-12-26T03:08:03.387Z,6.10
2018-12-26T03:10:31.556Z,6.10
2018-12-26T03:13:00.039Z,6.10
2018-12-26T03:15:28.632Z,6.20
2018-12-26T03:17:56.706Z,6.20
2018-12-26T03:20:24.833Z,6.20
2018-12-26T03:22:52.915Z,6.20
2018-12-26T03:25:21.038Z,6.20
2018-12-26T03:27:49.259Z,6.20
2018-12-26T03:30:17.487Z,6.20
2018-12-26T03:32:45.566Z,6.10
2018-12-26T03:35:13.982Z,6.10
2018-12-26T03:37:42.377Z,6.10
2018-12-26T03:40:10.983Z,6.10
2018-12-26T03:42:39.737Z,6.10
2018-12-26T03:45:07.748Z,6.10
2018-12-26T03:47:37.551Z,6.10
2018-12-26T03:50:24.718Z,6.10
2018-12-26T03:52:59.201Z,6.10
2018-12-26T03:55:27.353Z,6.10
2018-12-26T03:57:55.624Z,6.10
2018-12-26T04:00:23.697Z,6.10
2018-12-26T04:02:51.867Z,6.10
2018-12-26T04:05:19.980Z,6.10
2018-12-26T04:07:48.630Z,6.10
2018-12-26T04:10:16.898Z,6.10
2018-12-26T04:12:45.704Z,6.20
2018-12-26T04:15:14.967Z,6.20
2018-12-26T04:17:43.121Z,6.10
2018-12-26T04:20:11.613Z,6.10
2018-12-26T04:22:39.927Z,6.10
2018-12-26T04:25:08.251Z,6.10
2018-12-26T04:27:36.394Z,6.10
2018-12-26T04:30:06.629Z,6.10
2018-12-26T04:32:34.676Z,6.20
2018-12-26T04:35:03.157Z,6.10
2018-12-26T04:37:31.227Z,6.10
2018-12-26T04:39:59.250Z,6.10
2018-12-26T04:42:27.304Z,6.20
2018-12-26T04:44:55.348Z,6.10
2018-12-26T04:47:23.388Z,6.10
2018-12-26T04:49:51.797Z,6.10
2018-12-26T04:52:20.025Z,6.20
2018-12-26T04:54:48.283Z,6.20
2018-12-26T04:57:24.485Z,6.20
2018-12-26T04:59:46.580Z,6.30
2018-12-26T05:02:14.974Z,6.20
2018-12-26T05:04:43.081Z,6.20
2018-12-26T05:07:11.138Z,6.20
2018-12-26T05:09:39.230Z,6.20
2018-12-26T05:12:07.274Z,6.20
2018-12-26T05:14:35.502Z,6.20
2018-12-26T05:17:03.689Z,6.30
2018-12-26T05:19:31.866Z,6.30
2018-12-26T05:22:00.197Z,6.30
2018-12-26T05:24:28.429Z,6.40
2018-12-26T05:26:56.497Z,6.30
2018-12-26T05:29:24.654Z,6.40
2018-12-26T05:31:52.775Z,6.40
2018-12-26T05:34:20.961Z,6.40
2018-12-26T05:36:50.138Z,6.40
2018-12-26T05:39:18.204Z,6.40
2018-12-26T05:41:46.249Z,6.50
2018-12-26T05:44:14.324Z,6.50
2018-12-26T05:46:42.329Z,6.50
2018-12-26T05:49:10.390Z,6.50
2018-12-26T05:51:38.809Z,6.50
2018-12-26T05:54:06.924Z,6.50
2018-12-26T05:56:35.034Z,6.60
2018-12-26T05:59:03.209Z,6.60
2018-12-26T06:01:31.302Z,6.70
2018-12-26T06:03:59.454Z,6.70
2018-12-26T06:06:27.561Z,6.70
2018-12-26T06:08:55.619Z,6.70
2018-12-26T06:11:23.728Z,6.70
2018-12-26T06:13:52.026Z,6.80
2018-12-26T06:16:20.280Z,6.80
2018-12-26T06:18:48.287Z,6.90
2018-12-26T06:21:16.661Z,6.90
2018-12-26T06:23:44.710Z,6.90
2018-12-26T06:26:12.760Z,6.90
2018-12-26T06:28:40.920Z,6.90
2018-12-26T06:31:09.067Z,6.90
2018-12-26T06:33:37.069Z,6.90
2018-12-26T06:36:05.117Z,6.90
2018-12-26T06:38:33.270Z,7.00
2018-12-26T06:41:01.620Z,7.00
2018-12-26T06:43:29.865Z,7.00
2018-12-26T06:45:58.149Z,7.00
2018-12-26T06:48:26.374Z,7.00
2018-12-26T06:50:54.485Z,7.10
2018-12-26T06:53:22.902Z,7.10
2018-12-26T06:55:51.546Z,7.00
2018-12-26T06:58:19.796Z,6.90
2018-12-26T07:00:47.900Z,7.00
2018-12-26T07:03:15.946Z,7.00
2018-12-26T07:05:44.230Z,7.10
2018-12-26T07:08:12.317Z,7.00
2018-12-26T07:10:40.404Z,7.10
2018-12-26T07:13:08.694Z,7.10
2018-12-26T07:15:36.886Z,7.10
2018-12-26T07:18:04.977Z,7.10
2018-12-26T07:20:33.426Z,7.10
2018-12-26T07:23:01.609Z,7.20
2018-12-26T07:25:29.701Z,7.30
2018-12-26T07:27:57.870Z,7.30
2018-12-26T07:30:26.133Z,7.40
2018-12-26T07:32:54.526Z,7.50
2018-12-26T07:35:23.052Z,7.60
2018-12-26T07:37:51.082Z,7.70
2018-12-26T07:40:19.214Z,7.60
2018-12-26T07:42:47.387Z,7.70
2018-12-26T07:45:15.945Z,7.70
2018-12-26T07:47:44.192Z,7.70
2018-12-26T07:50:13.461Z,7.60
2018-12-26T07:52:42.038Z,7.40
2018-12-26T07:55:13.746Z,7.30
2018-12-26T07:57:41.866Z,7.30
2018-12-26T08:00:10.322Z,7.20
2018-12-26T08:02:38.391Z,7.10
2018-12-26T08:05:06.430Z,7.10
2018-12-26T08:07:34.514Z,7.00
2018-12-26T08:10:02.886Z,7.00
2018-12-26T08:12:30.901Z,7.00
2018-12-26T08:14:59.022Z,6.90
2018-12-26T08:17:27.042Z,7.00
2018-12-26T08:19:55.121Z,7.00
2018-12-26T08:22:23.403Z,7.00
2018-12-26T08:24:51.592Z,7.00
2018-12-26T08:27:21.153Z,7.00
2018-12-26T08:29:49.268Z,7.00
2018-12-26T08:32:17.428Z,7.00
2018-12-26T08:34:45.622Z,7.00
2018-12-26T08:37:13.881Z,7.00
2018-12-26T08:39:41.921Z,7.10
2018-12-26T08:42:10.087Z,7.00
2018-12-26T08:44:38.197Z,7.00
2018-12-26T08:47:06.244Z,7.00
2018-12-26T08:49:34.317Z,7.00
2018-12-26T08:52:02.473Z,7.10
2018-12-26T08:54:30.555Z,7.10
2018-12-26T08:56:58.700Z,7.20
2018-12-26T08:59:26.797Z,7.20
2018-12-26T09:01:55.110Z,7.20
2018-12-26T09:04:23.182Z,7.20
2018-12-26T09:06:51.288Z,7.10
2018-12-26T09:09:19.481Z,7.20
2018-12-26T09:11:47.663Z,7.20
2018-12-26T09:14:16.079Z,7.20
2018-12-26T09:16:44.508Z,7.20
2018-12-26T09:19:13.580Z,7.30
2018-12-26T09:21:42.009Z,7.30
2018-12-26T09:24:10.377Z,7.30
2018-12-26T09:26:39.605Z,7.40
2018-12-26T09:29:07.753Z,7.40
2018-12-26T09:31:35.779Z,7.40
2018-12-26T09:34:03.951Z,7.40
2018-12-26T09:36:32.012Z,7.40
2018-12-26T09:39:00.089Z,7.40
2018-12-26T09:41:28.132Z,7.40
2018-12-26T09:43:56.402Z,7.50
2018-12-26T09:46:24.523Z,7.50
2018-12-26T09:48:52.946Z,7.50
2018-12-26T09:51:21.138Z,7.60
2018-12-26T09:53:49.687Z,7.60
2018-12-26T09:56:17.816Z,7.60
2018-12-26T09:58:52.485Z,7.60
2018-12-26T10:01:16.227Z,7.60
2018-12-26T10:03:44.437Z,7.60
2018-12-26T10:06:12.579Z,7.60
2018-12-26T10:08:40.683Z,7.60
2018-12-26T10:11:08.817Z,7.60
2018-12-26T10:13:36.973Z,7.60
2018-12-26T10:16:05.108Z,7.50
2018-12-26T10:18:33.813Z,7.50
2018-12-26T10:21:02.307Z,7.50
2018-12-26T10:23:30.593Z,7.50
2018-12-26T10:25:59.018Z,7.50
2018-12-26T10:28:27.378Z,7.50
2018-12-26T10:30:55.727Z,7.60
2018-12-26T10:33:23.904Z,7.60
2018-12-26T10:35:52.409Z,7.60
2018-12-26T10:38:20.474Z,7.60
2018-12-26T10:40:48.752Z,7.60
2018-12-26T10:43:17.403Z,7.70
2018-12-26T10:45:45.486Z,7.70
2018-12-26T10:48:13.728Z,7.70
2018-12-26T10:50:41.995Z,7.70
2018-12-26T10:53:10.186Z,7.80
2018-12-26T10:55:38.761Z,7.80
2018-12-26T10:58:06.893Z,7.90
2018-12-26T11:00:35.090Z,7.90
2018-12-26T11:03:03.614Z,7.80
2018-12-26T11:05:31.926Z,7.80
2018-12-26T11:08:00.286Z,7.80
2018-12-26T11:10:28.606Z,7.80
2018-12-26T11:12:56.811Z,7.80
2018-12-26T11:15:26.305Z,7.90
2018-12-26T11:17:56.144Z,7.90
2018-12-26T11:20:24.646Z,7.90
2018-12-26T11:22:53.065Z,7.90
2018-12-26T11:25:21.440Z,8.00
2018-12-26T11:27:50.150Z,8.00
2018-12-26T11:30:18.541Z,8.10
2018-12-26T11:32:46.705Z,8.10
2018-12-26T11:35:14.892Z,8.10
2018-12-26T11:37:43.127Z,8.20
2018-12-26T11:40:11.396Z,8.20
2018-12-26T11:42:39.588Z,8.30
2018-12-26T11:45:08.335Z,8.20
2018-12-26T11:47:36.538Z,8.20
2018-12-26T11:50:06.798Z,8.30
2018-12-26T11:52:35.012Z,8.30
2018-12-26T11:55:04.051Z,8.30
2018-12-26T11:57:32.201Z,8.40
2018-12-26T12:00:00.751Z,8.40
2018-12-26T12:02:29.213Z,8.40
2018-12-26T12:04:57.373Z,8.40
2018-12-26T12:07:25.740Z,8.40
2018-12-26T12:09:53.942Z,8.40
2018-12-26T12:12:22.276Z,8.40
2018-12-26T12:14:50.527Z,8.40
2018-12-26T12:17:18.825Z,8.40
2018-12-26T12:19:47.343Z,8.40
2018-12-26T12:22:15.568Z,8.40
2018-12-26T12:24:43.767Z,8.40
2018-12-26T12:27:11.967Z,8.40
2018-12-26T12:29:40.433Z,8.40
2018-12-26T12:32:08.549Z,8.40
2018-12-26T12:34:37.071Z,8.40
2018-12-26T12:37:05.620Z,8.50
2018-12-26T12:39:34.239Z,8.50
2018-12-26T12:42:02.370Z,8.50
2018-12-26T12:44:30.674Z,8.50
2018-12-26T12:46:58.798Z,8.50
2018-12-26T12:49:26.956Z,8.50
2018-12-26T12:51:55.111Z,8.50
2018-12-26T12:54:23.182Z,8.60
2018-12-26T12:56:51.291Z,8.60
2018-12-26T12:59:19.718Z,8.60
2018-12-26T13:01:48.013Z,8.50
2018-12-26T13:04:16.187Z,8.60
2018-12-26T13:06:44.268Z,8.60
2018-12-26T13:09:12.547Z,8.60
2018-12-26T13:11:40.617Z,8.60
2018-12-26T13:14:08.821Z,8.60
2018-12-26T13:16:37.683Z,8.60
2018-12-26T13:19:05.917Z,8.60
2018-12-26T13:21:34.001Z,8.60
2018-12-26T13:24:02.145Z,8.70
2018-12-26T13:26:30.323Z,8.60
2018-12-26T13:28:58.636Z,8.70
2018-12-26T13:31:26.985Z,8.60
2018-12-26T13:33:55.277Z,8.70
2018-12-26T13:36:23.410Z,8.70
2018-12-26T13:38:51.609Z,8.60
2018-12-26T13:41:20.011Z,8.60
2018-12-26T13:43:48.255Z,8.70
2018-12-26T13:46:16.319Z,8.60
2018-12-26T13:48:44.541Z,8.60
2018-12-26T13:51:12.612Z,8.60
2018-12-26T13:53:40.679Z,8.60
2018-12-26T13:56:08.891Z,8.70
2018-12-26T13:58:36.960Z,8.70
2018-12-26T14:01:05.173Z,8.70
2018-12-26T14:03:33.367Z,8.70
2018-12-26T14:06:02.395Z,8.60
2018-12-26T14:08:30.551Z,8.70
2018-12-26T14:10:58.952Z,8.70
2018-12-26T14:13:27.235Z,8.70
2018-12-26T14:15:55.360Z,8.70
2018-12-26T14:18:23.578Z,8.70
2018-12-26T14:20:51.709Z,8.70
2018-12-26T14:23:19.827Z,8.70
2018-12-26T14:25:49.305Z,8.70
2018-12-26T14:28:17.339Z,8.70
2018-12-26T14:30:45.552Z,8.70
2018-12-26T14:33:13.721Z,8.70
2018-12-26T14:35:50.666Z,8.70
2018-12-26T14:38:18.863Z,8.70
2018-12-26T14:40:46.910Z,8.80
2018-12-26T14:43:15.038Z,8.80
2018-12-26T14:45:43.199Z,8.80
2018-12-26T14:48:11.259Z,8.80
2018-12-26T14:50:39.817Z,8.80
2018-12-26T14:53:08.063Z,8.80
2018-12-26T14:55:36.402Z,8.80
2018-12-26T14:58:04.972Z,8.90
2018-12-26T15:00:33.124Z,8.90
2018-12-26T15:03:01.440Z,9.00
2018-12-26T15:05:29.708Z,9.00
2018-12-26T15:07:57.781Z,9.00
2018-12-26T15:10:25.799Z,9.00
2018-12-26T15:12:53.935Z,9.00
2018-12-26T15:15:22.260Z,9.00
2018-12-26T15:17:50.609Z,9.00
2018-12-26T15:20:19.048Z,9.00
2018-12-26T15:22:47.434Z,9.00
2018-12-26T15:25:15.664Z,9.00
2018-12-26T15:27:43.838Z,9.00
2018-12-26T15:30:12.005Z,9.00
2018-12-26T15:32:40.138Z,9.00
2018-12-26T15:35:08.410Z,9.00
2018-12-26T15:37:36.574Z,9.10
2018-12-26T15:40:08.373Z,9.10
2018-12-26T15:42:36.559Z,9.10
2018-12-26T15:45:05.763Z,9.10
2018-12-26T15:47:33.816Z,9.10
2018-12-26T15:50:02.466Z,9.10
2018-12-26T15:52:30.718Z,9.10
2018-12-26T15:54:58.846Z,9.10
2018-12-26T15:57:27.436Z,9.10
2018-12-26T15:59:55.934Z,9.10
2018-12-26T16:02:24.232Z,9.10
2018-12-26T16:04:52.261Z,9.10
2018-12-26T16:07:20.454Z,9.10
2018-12-26T16:09:48.781Z,9.10
2018-12-26T16:12:17.441Z,9.00
2018-12-26T16:14:45.650Z,9.00
2018-12-26T16:17:13.727Z,9.00
2018-12-26T16:19:41.907Z,9.00
2018-12-26T16:22:10.202Z,9.00
2018-12-26T16:24:38.531Z,9.00
2018-12-26T16:27:07.025Z,9.00
2018-12-26T16:29:35.625Z,9.00
2018-12-26T16:32:04.335Z,9.00
2018-12-26T16:34:32.496Z,9.00
2018-12-26T16:37:00.791Z,9.00
2018-12-26T16:39:35.736Z,9.10
2018-12-26T16:41:59.168Z,9.10
2018-12-26T16:44:27.319Z,9.10
2018-12-26T16:46:55.550Z,9.10
2018-12-26T16:49:23.892Z,9.10
2018-12-26T16:51:52.048Z,9.00
2018-12-26T16:54:20.401Z,9.10
2018-12-26T16:56:48.732Z,9.10
2018-12-26T16:59:16.887Z,9.10
2018-12-26T17:01:44.947Z,9.10
2018-12-26T17:04:12.982Z,9.10
2018-12-26T17:06:41.064Z,9.10
2018-12-26T17:09:12.394Z,9.00
2018-12-26T17:11:40.510Z,9.00
2018-12-26T17:14:08.581Z,9.00
2018-12-26T17:16:36.714Z,9.00
2018-12-26T17:19:04.962Z,9.00
2018-12-26T17:21:33.202Z,9.00
2018-12-26T17:24:01.272Z,9.00
2018-12-26T17:26:29.429Z,9.00
2018-12-26T17:28:58.620Z,9.00
2018-12-26T17:31:26.912Z,9.00
2018-12-26T17:33:55.045Z,9.00
2018-12-26T17:36:25.725Z,9.00
2018-12-26T17:38:55.437Z,9.10
2018-12-26T17:41:23.854Z,9.10
2018-12-26T17:43:52.214Z,9.10
2018-12-26T17:46:20.461Z,9.10
2018-12-26T17:48:48.840Z,9.10
2018-12-26T17:51:20.950Z,9.10
2018-12-26T17:54:52.129Z,9.20
2018-12-26T17:57:39.116Z,9.10
2018-12-26T18:01:01.065Z,9.00
2018-12-26T18:03:29.434Z,8.90
2018-12-26T18:05:57.492Z,8.90
2018-12-26T18:08:26.946Z,8.80
2018-12-26T18:10:55.111Z,8.80
2018-12-26T18:13:23.165Z,8.80
2018-12-26T18:15:51.366Z,8.90
2018-12-26T18:18:19.546Z,8.90
2018-12-26T18:20:47.671Z,8.90
2018-12-26T18:23:15.789Z,8.90
2018-12-26T18:25:43.924Z,8.80
2018-12-26T18:28:12.120Z,8.80
2018-12-26T18:30:40.374Z,8.80
2018-12-26T18:33:08.733Z,8.90
2018-12-26T18:35:36.990Z,8.90
2018-12-26T18:38:05.268Z,8.80
2018-12-26T18:40:33.993Z,8.80
2018-12-26T18:43:02.112Z,8.80
2018-12-26T18:45:30.462Z,8.70
2018-12-26T18:47:58.649Z,8.70
2018-12-26T18:50:26.814Z,8.70
2018-12-26T18:52:55.131Z,8.70
2018-12-26T18:55:23.674Z,8.70
2018-12-26T18:57:51.974Z,8.60
2018-12-26T19:00:20.109Z,8.60
2018-12-26T19:02:48.399Z,8.60
2018-12-26T19:05:16.416Z,8.50
2018-12-26T19:07:44.503Z,8.50
2018-12-26T19:10:12.668Z,8.50
2018-12-26T19:12:40.772Z,8.40
2018-12-26T19:15:09.336Z,8.40
2018-12-26T19:17:37.480Z,8.40
2018-12-26T19:20:08.614Z,8.50
2018-12-26T19:22:36.713Z,8.50
2018-12-26T19:25:05.384Z,8.40
2018-12-26T19:27:33.539Z,8.40
2018-12-26T19:30:01.829Z,8.40
2018-12-26T19:32:30.188Z,8.50
2018-12-26T19:34:59.290Z,8.50
2018-12-26T19:37:27.792Z,8.50
2018-12-26T19:39:56.191Z,8.50
2018-12-26T19:42:24.570Z,8.50
2018-12-26T19:44:52.959Z,8.50
2018-12-26T19:47:21.074Z,8.50
2018-12-26T19:49:49.120Z,8.40
2018-12-26T19:52:17.344Z,8.40
2018-12-26T19:54:45.453Z,8.40
2018-12-26T19:57:13.553Z,8.50
2018-12-26T19:59:41.580Z,8.40
2018-12-26T20:02:09.955Z,8.40
2018-12-26T20:04:38.603Z,8.40
2018-12-26T20:07:06.891Z,8.40
2018-12-26T20:09:35.463Z,8.30
2018-12-26T20:12:08.593Z,8.30
2018-12-26T20:14:36.807Z,8.20
2018-12-26T20:17:05.364Z,8.20
2018-12-26T20:19:33.477Z,8.20
2018-12-26T20:22:01.718Z,8.20
2018-12-26T20:24:29.808Z,8.10
2018-12-26T20:26:57.850Z,8.10
2018-12-26T20:29:26.057Z,8.00
2018-12-26T20:31:57.080Z,8.00
2018-12-26T20:34:24.178Z,8.00
2018-12-26T20:36:52.357Z,8.00
2018-12-26T20:39:20.762Z,8.00
2018-12-26T20:41:48.911Z,8.00
2018-12-26T20:44:17.241Z,8.00
2018-12-26T20:46:45.354Z,8.00
2018-12-26T20:49:13.601Z,8.00
2018-12-26T20:51:41.838Z,8.00
2018-12-26T20:54:10.036Z,8.00
2018-12-26T20:56:38.332Z,8.00
2018-12-26T20:59:06.483Z,8.00
2018-12-26T21:01:34.730Z,7.90
2018-12-26T21:04:03.027Z,7.90
2018-12-26T21:06:31.122Z,7.90
2018-12-26T21:08:59.217Z,7.90
2018-12-26T21:11:27.431Z,7.90
2018-12-26T21:13:55.535Z,7.90
2018-12-26T21:16:23.986Z,7.90
2018-12-26T21:18:52.200Z,8.00
2018-12-26T21:21:20.286Z,8.00
2018-12-26T21:23:48.467Z,8.00
2018-12-26T21:26:16.617Z,7.90
2018-12-26T21:28:44.870Z,7.90
2018-12-26T21:31:13.070Z,7.80
2018-12-26T21:33:41.444Z,7.80
2018-12-26T21:36:11.175Z,7.80
2018-12-26T21:38:39.241Z,7.80
2018-12-26T21:41:07.425Z,7.80
2018-12-26T21:43:35.633Z,7.80
2018-12-26T21:46:03.804Z,7.80
2018-12-26T21:48:31.916Z,7.80
2018-12-26T21:51:00.016Z,7.80
2018-12-26T21:53:28.210Z,7.70
2018-12-26T21:55:56.352Z,7.70
2018-12-26T21:58:24.436Z,7.70
2018-12-26T22:00:52.497Z,7.70
2018-12-26T22:03:20.601Z,7.70
2018-12-26T22:05:48.620Z,7.70
2018-12-26T22:08:16.729Z,7.80
2018-12-26T22:10:45.879Z,7.80
2018-12-26T22:13:13.992Z,7.80
2018-12-26T22:15:42.117Z,7.90
2018-12-26T22:18:10.745Z,7.80
2018-12-26T22:20:39.025Z,7.80
2018-12-26T22:23:07.087Z,7.80
2018-12-26T22:25:35.312Z,7.80
2018-12-26T22:28:03.660Z,7.70
2018-12-26T22:30:31.836Z,7.70
2018-12-26T22:33:00.099Z,7.70
2018-12-26T22:35:28.278Z,7.80
2018-12-26T22:37:56.350Z,7.80
2018-12-26T22:40:24.698Z,7.80
2018-12-26T22:42:52.920Z,7.80
2018-12-26T22:45:21.048Z,7.80
2018-12-26T22:47:49.308Z,7.70
2018-12-26T22:50:17.369Z,7.70
2018-12-26T22:52:45.429Z,7.70
2018-12-26T22:55:15.475Z,7.70
2018-12-26T22:57:43.637Z,7.70
2018-12-26T23:00:14.721Z,7.70
2018-12-26T23:02:44.051Z,7.70
2018-12-26T23:05:12.232Z,7.70
2018-12-26T23:07:40.424Z,7.70
2018-12-26T23:10:08.702Z,7.70
2018-12-26T23:12:36.928Z,7.70
2018-12-26T23:15:06.540Z,7.60
2018-12-26T23:17:34.774Z,7.60
2018-12-26T23:20:02.955Z,7.50
2018-12-26T23:22:31.008Z,7.60
2018-12-26T23:24:59.198Z,7.60
2018-12-26T23:27:28.334Z,7.50
2018-12-26T23:29:56.542Z,7.50
2018-12-26T23:32:24.614Z,7.50
2018-12-26T23:34:52.870Z,7.60
2018-12-26T23:37:21.210Z,7.50
2018-12-26T23:39:49.579Z,7.50
2018-12-26T23:42:17.749Z,7.60
2018-12-26T23:44:45.882Z,7.60
2018-12-26T23:47:14.099Z,7.60
2018-12-26T23:49:42.685Z,7.60
2018-12-26T23:52:10.698Z,7.50
2018-12-26T23:54:38.837Z,7.50
2018-12-26T23:57:06.876Z,7.50
2018-12-26T23:59:35.109Z,7.50
